createdAt,value
2019-04-11T00:02:24.719Z,4.30
2019-04-11T00:07:14.490Z,4.30
2019-04-11T00:12:06.319Z,4.43
2019-04-11T00:16:57.380Z,4.20
2019-04-11T00:21:47.349Z,4.27
2019-04-11T00:26:38.263Z,4.50
2019-04-11T00:31:30.639Z,4.13
2019-04-11T00:36:20.799Z,4.90
2019-04-11T00:41:13.378Z,4.03
2019-04-11T00:46:04.339Z,3.37
2019-04-11T00:50:54.306Z,4.70
2019-04-11T00:55:46.027Z,4.30
2019-04-11T01:00:37.085Z,4.37
2019-04-11T01:05:27.634Z,3.27
2019-04-11T01:10:18.187Z,5.00
2019-04-11T01:15:09.083Z,4.97
2019-04-11T01:20:00.761Z,4.70
2019-04-11T01:24:52.316Z,4.67
2019-04-11T01:29:42.557Z,3.73
2019-04-11T01:34:34.974Z,3.83
2019-04-11T01:39:25.197Z,4.77
2019-04-11T01:44:16.543Z,4.47
2019-04-11T01:49:08.120Z,4.07
2019-04-11T01:53:59.422Z,4.40
2019-04-11T01:58:49.565Z,3.90
2019-04-11T02:03:43.257Z,3.40
2019-04-11T02:08:33.998Z,4.93
2019-04-11T02:13:25.932Z,3.77
2019-04-11T02:18:16.559Z,4.20
2019-04-11T02:23:19.940Z,6.53
2019-04-11T02:28:09.084Z,4.97
2019-04-11T02:33:00.369Z,4.20
2019-04-11T02:37:52.045Z,5.00
2019-04-11T02:42:43.308Z,4.53
2019-04-11T02:47:36.927Z,4.23
2019-04-11T02:52:25.464Z,4.20
2019-04-11T02:57:16.503Z,3.60
2019-04-11T03:02:08.868Z,5.53
2019-04-11T03:07:00.024Z,3.50
2019-04-11T03:11:51.493Z,4.30
2019-04-11T03:16:53.347Z,3.33
2019-04-11T03:21:36.311Z,4.70
2019-04-11T03:26:22.471Z,3.87
2019-04-11T03:31:53.287Z,3.33
2019-04-11T03:36:59.932Z,3.20
2019-04-11T03:41:14.237Z,3.40
2019-04-11T03:46:03.852Z,2.83
2019-04-11T03:50:39.324Z,3.50
2019-04-11T03:55:28.446Z,4.20
2019-04-11T04:00:19.291Z,3.20
2019-04-11T04:05:10.596Z,3.20
2019-04-11T04:10:00.511Z,3.23
2019-04-11T04:14:53.752Z,3.10
2019-04-11T04:19:47.713Z,3.60
2019-04-11T04:24:40.462Z,2.93
2019-04-11T04:29:29.387Z,3.20
2019-04-11T04:34:19.805Z,3.00
2019-04-11T04:39:10.741Z,4.10
2019-04-11T04:44:01.807Z,4.20
2019-04-11T04:48:53.965Z,3.43
2019-04-11T04:53:45.051Z,3.47
2019-04-11T04:58:34.402Z,3.30
2019-04-11T05:03:26.814Z,4.70
2019-04-11T05:08:16.850Z,3.53
2019-04-11T05:13:09.949Z,4.63
2019-04-11T05:18:00.120Z,3.50
2019-04-11T05:22:51.296Z,4.93
2019-04-11T05:27:42.098Z,4.75
2019-04-11T05:32:33.477Z,4.33
2019-04-11T05:37:23.937Z,3.90
2019-04-11T05:42:17.727Z,3.97
2019-04-11T05:47:06.945Z,5.33
2019-04-11T05:52:00.443Z,3.70
2019-04-11T05:56:55.190Z,4.03
2019-04-11T06:01:42.982Z,7.63
2019-04-11T06:06:39.940Z,5.30
2019-04-11T06:11:34.837Z,4.03
2019-04-11T06:16:36.081Z,6.03
2019-04-11T06:21:17.863Z,4.20
2019-04-11T06:31:36.706Z,4.60
2019-04-11T06:36:28.569Z,4.40
2019-04-11T06:41:24.280Z,6.90
2019-04-11T06:46:16.939Z,4.33
2019-04-11T06:51:11.615Z,4.37
2019-04-11T06:56:05.305Z,4.62
2019-04-11T07:00:56.202Z,8.57
2019-04-11T07:05:47.088Z,4.20
2019-04-11T07:10:38.806Z,4.00
2019-04-11T07:15:31.556Z,4.00
2019-04-11T07:20:29.328Z,4.13
2019-04-11T07:25:30.987Z,3.50
2019-04-11T07:35:42.469Z,3.50
2019-04-11T07:40:35.306Z,2.93
2019-04-11T07:45:25.959Z,2.70
2019-04-11T07:50:19.520Z,2.23
2019-04-11T07:55:08.879Z,2.50
2019-04-11T08:00:00.112Z,2.33
2019-04-11T08:04:53.222Z,2.50
2019-04-11T08:09:44.020Z,1.53
2019-04-11T08:14:38.809Z,2.80
2019-04-11T08:19:33.096Z,2.30
2019-04-11T08:24:26.865Z,1.80
2019-04-11T08:29:17.972Z,2.17
2019-04-11T08:34:07.860Z,1.57
2019-04-11T08:39:00.539Z,1.97
2019-04-11T08:43:51.206Z,1.90
2019-04-11T08:48:45.519Z,1.50
2019-04-11T08:53:35.172Z,2.12
2019-04-11T09:03:59.810Z,2.10
2019-04-11T09:08:47.261Z,2.00
2019-04-11T09:19:02.476Z,1.60
2019-04-11T09:23:52.365Z,1.40
2019-04-11T09:28:44.190Z,1.50
2019-04-11T09:33:41.915Z,1.67
2019-04-11T09:43:52.613Z,1.63
2019-04-11T09:48:46.444Z,1.47
2019-04-11T09:53:38.797Z,1.27
2019-04-11T09:58:29.527Z,1.10
2019-04-11T10:03:20.377Z,1.00
2019-04-11T10:08:12.790Z,1.20
2019-04-11T10:13:10.831Z,1.50
2019-04-11T10:18:19.650Z,1.07
2019-04-11T10:23:01.427Z,1.93
2019-04-11T10:27:57.259Z,1.50
2019-04-11T10:32:53.279Z,0.70
2019-04-11T10:37:44.327Z,2.83
2019-04-11T10:42:35.115Z,1.00
2019-04-11T10:47:29.103Z,1.13
2019-04-11T10:52:24.628Z,1.20
2019-04-11T10:57:22.441Z,1.23
2019-04-11T11:02:13.182Z,2.70
2019-04-11T11:07:04.814Z,0.90
2019-04-11T11:11:58.865Z,0.87
2019-04-11T11:16:54.754Z,1.50
2019-04-11T11:21:45.118Z,1.00
2019-04-11T11:26:35.687Z,1.30
2019-04-11T11:37:05.193Z,1.13
2019-04-11T11:42:02.407Z,1.30
2019-04-11T11:47:01.558Z,1.13
2019-04-11T11:51:58.019Z,0.83
2019-04-11T11:56:47.274Z,1.30
2019-04-11T12:01:41.094Z,1.30
2019-04-11T12:06:29.282Z,1.20
2019-04-11T12:11:19.457Z,1.10
2019-04-11T12:16:19.657Z,1.03
2019-04-11T12:21:07.749Z,0.97
2019-04-11T12:25:59.380Z,0.80
2019-04-11T12:30:53.092Z,1.00
2019-04-11T12:35:42.659Z,1.00
2019-04-11T12:40:34.305Z,3.17
2019-04-11T12:45:30.182Z,1.23
2019-04-11T12:50:27.125Z,1.27
2019-04-11T12:55:24.186Z,1.43
2019-04-11T13:00:16.989Z,1.20
2019-04-11T13:05:07.873Z,1.00
2019-04-11T13:09:58.777Z,1.70
2019-04-11T13:14:50.617Z,2.10
2019-04-11T13:19:42.305Z,2.57
2019-04-11T13:24:39.522Z,2.43
2019-04-11T13:29:35.389Z,1.70
2019-04-11T13:34:26.277Z,1.90
2019-04-11T13:39:17.168Z,1.67
2019-04-11T13:44:09.912Z,1.80
2019-04-11T13:49:00.564Z,2.08
2019-04-11T13:53:57.504Z,2.03
2019-04-11T13:58:50.009Z,2.30
2019-04-11T14:03:40.897Z,1.50
2019-04-11T14:08:33.736Z,1.50
2019-04-11T14:13:24.649Z,1.80
2019-04-11T14:18:21.148Z,1.90
2019-04-11T14:23:18.387Z,1.50
2019-04-11T14:28:09.285Z,1.95
2019-04-11T14:33:01.042Z,1.80
2019-04-11T14:37:51.116Z,2.17
2019-04-11T14:42:47.649Z,1.47
2019-04-11T14:47:44.649Z,1.73
2019-04-11T14:57:54.496Z,1.67
2019-04-11T15:08:07.082Z,13.03
2019-04-11T15:12:58.720Z,7.83
2019-04-11T15:17:50.341Z,3.40
2019-04-11T15:22:41.242Z,5.50
2019-04-11T15:27:38.573Z,2.80
2019-04-11T15:32:47.462Z,2.87
2019-04-11T15:42:58.158Z,2.43
2019-04-11T15:47:50.025Z,2.43
2019-04-11T15:52:40.864Z,2.40
2019-04-11T15:57:32.500Z,2.23
2019-04-11T16:02:38.079Z,2.23
2019-04-11T16:07:32.062Z,2.78
2019-04-11T16:12:28.072Z,1.30
2019-04-11T16:17:42.417Z,2.05
2019-04-11T16:22:33.670Z,1.67
2019-04-11T16:27:31.409Z,1.80
2019-04-11T16:32:22.312Z,1.80
2019-04-11T16:37:13.207Z,1.73
2019-04-11T16:42:04.097Z,1.80
2019-04-11T16:47:01.285Z,2.08
2019-04-11T16:51:52.913Z,1.73
2019-04-11T16:56:44.611Z,4.57
2019-04-11T17:01:36.219Z,1.50
2019-04-11T17:06:28.160Z,1.60
2019-04-11T17:11:19.160Z,1.30
2019-04-11T17:16:10.704Z,1.60
2019-04-11T17:21:02.259Z,1.90
2019-04-11T17:25:53.677Z,2.20
2019-04-11T17:30:44.908Z,2.37
2019-04-11T17:35:35.802Z,1.90
2019-04-11T17:40:26.709Z,1.90
2019-04-11T17:45:18.349Z,1.77
2019-04-11T17:50:09.977Z,2.20
2019-04-11T17:55:01.788Z,2.20
2019-04-11T17:59:52.705Z,2.30
2019-04-11T18:04:45.825Z,2.73
2019-04-11T18:09:34.579Z,2.30
2019-04-11T18:14:25.468Z,2.50
2019-04-11T18:19:16.493Z,2.80
2019-04-11T18:24:07.377Z,3.43
2019-04-11T18:28:59.073Z,3.47
2019-04-11T18:33:50.702Z,4.40
2019-04-11T18:38:42.334Z,4.50
2019-04-11T18:43:34.031Z,4.37
2019-04-11T18:48:25.006Z,4.40
2019-04-11T18:53:19.045Z,4.90
2019-04-11T18:58:08.380Z,7.80
2019-04-11T19:03:00.051Z,4.60
2019-04-11T19:07:51.003Z,4.10
2019-04-11T19:12:43.966Z,4.27
2019-04-11T19:17:32.862Z,4.83
2019-04-11T19:22:37.247Z,4.73
2019-04-11T19:27:17.278Z,5.20
2019-04-11T19:32:07.056Z,4.23
2019-04-11T19:36:58.685Z,5.80
2019-04-11T19:41:50.321Z,5.67
2019-04-11T19:46:42.125Z,6.23
2019-04-11T19:51:33.218Z,8.13
2019-04-11T19:56:26.025Z,7.47
2019-04-11T20:01:16.921Z,6.40
2019-04-11T20:06:07.816Z,5.87
2019-04-11T20:11:01.089Z,7.33
2019-04-11T20:15:50.635Z,5.60
2019-04-11T20:20:40.537Z,4.60
2019-04-11T20:25:32.183Z,8.37
2019-04-11T20:30:25.306Z,8.90
2019-04-11T20:35:14.741Z,5.77
2019-04-11T20:40:06.405Z,6.90
2019-04-11T20:44:58.465Z,5.83
2019-04-11T20:49:48.277Z,6.13
2019-04-11T20:54:40.667Z,4.87
2019-04-11T20:59:34.694Z,5.13
2019-04-11T21:04:23.227Z,8.10
2019-04-11T21:09:14.129Z,5.80
2019-04-11T21:14:05.772Z,4.50
2019-04-11T21:18:57.474Z,5.47
2019-04-11T21:23:48.369Z,4.60
2019-04-11T21:28:39.263Z,5.57
2019-04-11T21:33:34.221Z,5.13
2019-04-11T21:38:21.080Z,4.43
2019-04-11T21:43:12.709Z,4.73
2019-04-11T21:48:05.631Z,4.60
2019-04-11T21:52:56.015Z,3.53
2019-04-11T21:57:48.883Z,4.00
2019-04-11T22:02:37.826Z,4.00
2019-04-11T22:07:31.037Z,3.90
2019-04-11T22:12:20.446Z,3.13
2019-04-11T22:17:14.852Z,3.20
2019-04-11T22:22:02.302Z,3.77
2019-04-11T22:26:53.245Z,3.10
2019-04-11T22:31:44.281Z,2.60
2019-04-11T22:36:35.222Z,3.83
2019-04-11T22:41:26.118Z,3.10
2019-04-11T22:46:20.926Z,2.83
2019-04-11T22:51:11.251Z,3.00
2019-04-11T22:56:00.414Z,3.83
2019-04-11T23:00:51.724Z,3.80
2019-04-11T23:05:42.282Z,2.90
2019-04-11T23:10:57.892Z,2.57
2019-04-11T23:15:49.557Z,2.80
2019-04-11T23:20:43.817Z,2.60
2019-04-11T23:25:32.170Z,3.10
2019-04-11T23:30:23.072Z,2.58
2019-04-11T23:35:13.965Z,2.37
2019-04-11T23:40:04.893Z,2.83
2019-04-11T23:44:55.782Z,2.90
2019-04-11T23:49:47.568Z,2.10
2019-04-11T23:54:38.469Z,2.90
2019-04-11T23:59:31.714Z,2.93
